Time;durP1;ratioP1;P1;durP2;ratioP2;P2;SDS_P1;SDS_P2;PMS_P1;PMS_P2;Temp;Humidity;BMP_temperature;BMP_pressure;BME280_temperature;BME280_humidity;BME280_pressure;Samples;Min_cycle;Max_cycle;Signal;HPM_P1;HPM_P2
2024/01/06 00:01:40;;;;;;;0.00;0.00;;;21.70;50.30;;;;;;5108363;28;20326;-41
2024/01/06 00:04:11;;;;;;;0.00;0.00;;;21.70;50.30;;;;;;5127419;27;20193;-41
2024/01/06 00:06:42;;;;;;;0.00;0.00;;;21.80;50.30;;;;;;5128412;27;20204;-44
2024/01/06 00:09:13;;;;;;;0.00;0.00;;;21.80;50.90;;;;;;5127534;27;20594;-41
2024/01/06 00:11:45;;;;;;;0.00;0.00;;;21.90;50.30;;;;;;5115638;28;20205;-41
2024/01/06 00:14:16;;;;;;;0.00;0.00;;;21.90;50.30;;;;;;5124888;28;20205;-41
2024/01/06 00:16:47;;;;;;;0.00;0.00;;;21.90;50.20;;;;;;5123636;28;20284;-42
2024/01/06 00:19:18;;;;;;;0.00;0.00;;;22.00;50.10;;;;;;5127567;28;20217;-45
2024/01/06 00:21:48;;;;;;;0.10;0.10;;;22.00;50.00;;;;;;5127480;28;20200;-44
2024/01/06 00:24:19;;;;;;;0.00;0.00;;;22.00;49.90;;;;;;5124666;28;20196;-44
2024/01/06 00:26:52;;;;;;;0.00;0.00;;;22.10;50.00;;;;;;5128387;28;20582;-42
2024/01/06 00:29:23;;;;;;;0.00;0.00;;;22.10;50.20;;;;;;5126693;28;20233;-44
2024/01/06 00:31:53;;;;;;;0.10;0.10;;;22.10;50.20;;;;;;5125186;28;20197;-43
2024/01/06 00:34:24;;;;;;;0.10;0.10;;;22.20;50.20;;;;;;5128197;28;20199;-43
2024/01/06 00:36:55;;;;;;;0.00;0.00;;;22.20;50.20;;;;;;5122468;28;20231;-42
2024/01/06 00:39:25;;;;;;;0.00;0.00;;;22.30;50.30;;;;;;5125525;28;20224;-43
2024/01/06 00:41:58;;;;;;;0.10;0.10;;;22.30;50.30;;;;;;5125690;28;20197;-41
2024/01/06 00:44:29;;;;;;;0.00;0.00;;;22.30;50.30;;;;;;5125202;28;20197;-44
2024/01/06 00:46:59;;;;;;;0.00;0.00;;;22.30;50.20;;;;;;5127595;28;20205;-43
2024/01/06 00:49:30;;;;;;;0.10;0.10;;;22.40;50.30;;;;;;5125668;28;20216;-41
2024/01/06 00:52:01;;;;;;;0.00;0.00;;;22.40;50.20;;;;;;5126321;28;20193;-42
2024/01/06 00:54:32;;;;;;;0.00;0.00;;;22.50;50.20;;;;;;5127610;28;20210;-44
2024/01/06 00:57:04;;;;;;;0.10;0.10;;;22.50;50.20;;;;;;5127691;28;20220;-44
2024/01/06 00:59:35;;;;;;;0.00;0.00;;;22.50;50.20;;;;;;5125968;28;20223;-47
2024/01/06 01:02:06;;;;;;;0.00;0.00;;;22.60;50.20;;;;;;5126788;28;20209;-44
2024/01/06 01:04:36;;;;;;;0.03;0.03;;;22.60;50.10;;;;;;5125876;28;20197;-46
2024/01/06 01:07:07;;;;;;;0.00;0.00;;;22.60;50.10;;;;;;5124079;28;20533;-44
2024/01/06 01:09:39;;;;;;;0.00;0.00;;;22.70;50.10;;;;;;5127373;27;20221;-44
2024/01/06 01:12:12;;;;;;;0.10;0.10;;;22.70;50.10;;;;;;5131266;27;20201;-44
2024/01/06 01:14:42;;;;;;;0.00;0.00;;;22.70;50.00;;;;;;5131501;27;20193;-45
2024/01/06 01:17:13;;;;;;;0.00;0.00;;;22.70;50.00;;;;;;5120386;27;20596;-43
2024/01/06 01:19:44;;;;;;;0.00;0.00;;;22.80;50.10;;;;;;5131064;27;20216;-43
2024/01/06 01:22:15;;;;;;;0.03;0.03;;;22.80;50.00;;;;;;5131388;27;20196;-44
2024/01/06 01:24:45;;;;;;;0.10;0.10;;;22.90;50.00;;;;;;5132304;27;20197;-43
2024/01/06 01:27:18;;;;;;;0.00;0.00;;;22.90;50.10;;;;;;5131755;27;20193;-44
2024/01/06 01:29:52;;;;;;;0.00;0.00;;;22.90;50.20;;;;;;5130121;27;20216;-43
2024/01/06 01:32:23;;;;;;;0.00;0.00;;;22.90;50.40;;;;;;5115069;27;20215;-41
2024/01/06 01:34:53;;;;;;;0.00;0.00;;;23.00;50.30;;;;;;5131002;27;20618;-45
2024/01/06 01:37:24;;;;;;;0.00;0.00;;;23.00;50.20;;;;;;5130478;27;20722;-44
2024/01/06 01:39:55;;;;;;;0.03;0.03;;;23.00;50.00;;;;;;5130481;27;20220;-44
2024/01/06 01:42:28;;;;;;;0.00;0.00;;;23.00;49.90;;;;;;5131553;27;20534;-45
2024/01/06 01:44:58;;;;;;;0.00;0.00;;;23.10;49.80;;;;;;5117957;27;20197;-42
2024/01/06 01:47:29;;;;;;;0.00;0.00;;;23.10;49.70;;;;;;5127873;27;20201;-42
2024/01/06 01:50:01;;;;;;;0.03;0.03;;;23.10;49.50;;;;;;5129773;27;20220;-43
2024/01/06 01:52:32;;;;;;;0.00;0.00;;;23.10;49.30;;;;;;5130656;27;20201;-43
2024/01/06 01:55:03;;;;;;;0.08;0.08;;;23.10;49.10;;;;;;5130335;27;20304;-45
2024/01/06 01:57:36;;;;;;;0.00;0.00;;;23.20;48.90;;;;;;5123998;27;20225;-44
2024/01/06 02:00:07;;;;;;;0.00;0.00;;;23.20;48.90;;;;;;5110457;28;20224;-42
2024/01/06 02:02:38;;;;;;;0.00;0.00;;;23.20;48.70;;;;;;5109907;28;20537;-44
2024/01/06 02:05:09;;;;;;;0.00;0.00;;;23.20;48.70;;;;;;5110603;28;20661;-45
2024/01/06 02:07:40;;;;;;;0.00;0.00;;;23.30;48.60;;;;;;5118212;27;20202;-46
2024/01/06 02:10:11;;;;;;;0.00;0.00;;;23.30;48.50;;;;;;5127049;27;20220;-43
2024/01/06 02:12:44;;;;;;;0.00;0.00;;;23.30;48.60;;;;;;5110074;28;20193;-45
2024/01/06 02:15:14;;;;;;;0.00;0.00;;;23.30;48.60;;;;;;5109339;28;20197;-45
2024/01/06 02:17:45;;;;;;;0.00;0.00;;;23.30;48.50;;;;;;5109955;28;20598;-45
2024/01/06 02:20:19;;;;;;;0.00;0.00;;;23.40;48.50;;;;;;5109402;28;20228;-45
2024/01/06 02:22:52;;;;;;;0.00;0.00;;;23.40;48.40;;;;;;5110315;28;20194;-46
2024/01/06 02:25:23;;;;;;;0.00;0.00;;;23.40;48.20;;;;;;5109440;28;20589;-48
2024/01/06 02:27:54;;;;;;;0.00;0.00;;;23.40;48.10;;;;;;5109319;28;20837;-47
2024/01/06 02:30:24;;;;;;;0.00;0.00;;;23.40;48.00;;;;;;5109703;28;20225;-47
2024/01/06 02:32:55;;;;;;;0.00;0.00;;;23.50;47.90;;;;;;5111601;27;20193;-44
2024/01/06 02:35:26;;;;;;;0.00;0.00;;;23.50;47.90;;;;;;5109268;28;20700;-48
2024/01/06 02:37:58;;;;;;;0.00;0.00;;;23.50;47.70;;;;;;5120332;27;20228;-48
2024/01/06 02:40:29;;;;;;;0.10;0.10;;;23.50;47.50;;;;;;5130123;27;20213;-48
2024/01/06 02:43:00;;;;;;;0.00;0.00;;;23.50;47.60;;;;;;5129924;27;20253;-47
2024/01/06 02:45:30;;;;;;;0.00;0.00;;;23.60;47.70;;;;;;5130706;27;20201;-48
2024/01/06 02:48:01;;;;;;;0.00;0.00;;;23.60;47.50;;;;;;5129193;27;20203;-42
2024/01/06 02:50:32;;;;;;;0.00;0.00;;;23.60;47.30;;;;;;5128300;27;20217;-42
2024/01/06 02:53:04;;;;;;;0.00;0.00;;;23.60;47.10;;;;;;5113136;27;20644;-42
2024/01/06 02:55:35;;;;;;;0.00;0.00;;;23.60;47.10;;;;;;5129452;27;20678;-42
2024/01/06 02:58:06;;;;;;;0.00;0.00;;;23.70;47.30;;;;;;5129548;27;20444;-42
2024/01/06 03:00:37;;;;;;;0.00;0.00;;;23.60;47.50;;;;;;5119121;27;20431;-45
2024/01/06 03:03:07;;;;;;;0.00;0.00;;;23.70;47.50;;;;;;5107759;28;20919;-45
2024/01/06 03:05:38;;;;;;;0.00;0.00;;;23.90;46.70;;;;;;5108974;28;20346;-41
2024/01/06 03:08:11;;;;;;;0.00;0.00;;;24.20;46.80;;;;;;5121458;27;20418;-41
2024/01/06 03:10:42;;;;;;;0.00;0.00;;;24.30;46.50;;;;;;5128013;27;20427;-42
2024/01/06 03:13:13;;;;;;;0.00;0.00;;;24.50;46.10;;;;;;5128416;27;20637;-43
2024/01/06 03:15:43;;;;;;;0.00;0.00;;;24.80;45.40;;;;;;5127229;27;20510;-42
2024/01/06 03:18:14;;;;;;;0.00;0.00;;;25.00;45.00;;;;;;5122628;27;20447;-41
2024/01/06 03:20:45;;;;;;;0.00;0.00;;;25.20;44.70;;;;;;5128491;27;20216;-43
2024/01/06 03:23:17;;;;;;;0.00;0.00;;;25.30;44.80;;;;;;5129051;27;20196;-43
2024/01/06 03:25:48;;;;;;;0.00;0.00;;;25.30;44.60;;;;;;5129432;27;20200;-43
2024/01/06 03:28:19;;;;;;;0.00;0.00;;;25.20;44.60;;;;;;5128674;27;20193;-42
2024/01/06 03:30:50;;;;;;;0.10;0.10;;;25.10;44.60;;;;;;5119477;27;20580;-44
2024/01/06 03:33:20;;;;;;;0.00;0.00;;;25.00;44.70;;;;;;5114427;27;20551;-42
2024/01/06 03:35:51;;;;;;;0.00;0.00;;;24.90;44.90;;;;;;5129397;27;20688;-46
2024/01/06 03:38:24;;;;;;;0.00;0.00;;;24.80;45.10;;;;;;5128547;27;20224;-47
2024/01/06 03:40:55;;;;;;;0.00;0.00;;;24.70;45.20;;;;;;5128905;27;20218;-46
2024/01/06 03:43:25;;;;;;;0.10;0.10;;;24.60;45.30;;;;;;5128909;27;20196;-46
2024/01/06 03:45:57;;;;;;;0.00;0.00;;;24.60;45.50;;;;;;5108847;27;20198;-44
2024/01/06 03:48:28;;;;;;;0.00;0.00;;;24.50;45.50;;;;;;5114509;27;20201;-43
2024/01/06 03:50:59;;;;;;;0.00;0.00;;;24.50;45.70;;;;;;5108570;28;20208;-46
2024/01/06 03:53:31;;;;;;;0.00;0.00;;;24.40;45.60;;;;;;5108456;28;20208;-45
2024/01/06 03:56:02;;;;;;;0.03;0.03;;;24.40;45.80;;;;;;5108299;28;20588;-42
2024/01/06 03:58:33;;;;;;;0.00;0.00;;;24.40;45.90;;;;;;5108409;28;20221;-43
2024/01/06 04:01:03;;;;;;;0.00;0.00;;;24.40;46.00;;;;;;5106886;28;20656;-47
2024/01/06 04:03:34;;;;;;;0.00;0.00;;;24.40;46.00;;;;;;5107862;28;20667;-45
2024/01/06 04:06:05;;;;;;;0.00;0.00;;;24.40;45.80;;;;;;5107718;28;20189;-43
2024/01/06 04:08:38;;;;;;;0.00;0.00;;;24.40;45.70;;;;;;5123934;27;20204;-44
2024/01/06 04:11:09;;;;;;;0.00;0.00;;;24.40;45.70;;;;;;5129099;27;20211;-47
2024/01/06 04:13:40;;;;;;;0.00;0.00;;;24.40;45.80;;;;;;5107538;28;20231;-42
2024/01/06 04:16:10;;;;;;;0.00;0.00;;;24.40;45.80;;;;;;5107268;28;20200;-45
2024/01/06 04:18:41;;;;;;;0.00;0.00;;;24.40;45.80;;;;;;5106243;28;20628;-44
2024/01/06 04:21:12;;;;;;;0.00;0.00;;;24.40;45.40;;;;;;5107892;28;20193;-44
2024/01/06 04:23:44;;;;;;;0.00;0.00;;;24.40;45.30;;;;;;5128106;28;20201;-44
2024/01/06 04:26:15;;;;;;;0.00;0.00;;;24.40;45.40;;;;;;5121605;28;20189;-45
2024/01/06 04:28:46;;;;;;;0.00;0.00;;;24.40;45.50;;;;;;5126771;28;20189;-46
2024/01/06 04:31:16;;;;;;;0.00;0.00;;;24.40;45.50;;;;;;5128000;28;20196;-49
2024/01/06 04:33:47;;;;;;;0.00;0.00;;;24.40;45.60;;;;;;5128405;28;20696;-43
2024/01/06 04:36:18;;;;;;;0.00;0.00;;;24.40;45.50;;;;;;5127943;28;20196;-45
2024/01/06 04:38:50;;;;;;;0.00;0.00;;;24.40;45.40;;;;;;5128482;28;20243;-44
2024/01/06 04:41:21;;;;;;;0.00;0.00;;;24.40;45.20;;;;;;5125485;28;20204;-47
2024/01/06 04:43:52;;;;;;;0.00;0.00;;;24.40;45.20;;;;;;5128667;27;20219;-50
2024/01/06 04:46:22;;;;;;;0.00;0.00;;;24.40;45.30;;;;;;5131263;27;20200;-48
2024/01/06 04:48:53;;;;;;;0.00;0.00;;;24.40;45.20;;;;;;5132299;27;20217;-43
2024/01/06 04:51:24;;;;;;;0.00;0.00;;;24.40;45.10;;;;;;5131941;27;20197;-49
2024/01/06 04:53:56;;;;;;;0.00;0.00;;;24.40;45.10;;;;;;5131948;27;20196;-46
2024/01/06 04:56:27;;;;;;;0.00;0.00;;;24.40;45.00;;;;;;5112630;27;20680;-46
2024/01/06 04:58:58;;;;;;;0.00;0.00;;;24.40;45.00;;;;;;5111302;28;20240;-44
2024/01/06 05:01:29;;;;;;;0.00;0.00;;;24.40;45.00;;;;;;5110994;28;20246;-44
2024/01/06 05:04:00;;;;;;;0.00;0.00;;;24.40;45.00;;;;;;5110720;28;20201;-49
2024/01/06 05:06:31;;;;;;;0.00;0.00;;;24.40;44.80;;;;;;5110280;28;20238;-46
2024/01/06 05:09:03;;;;;;;0.00;0.00;;;24.40;44.90;;;;;;5125866;27;20239;-49
2024/01/06 05:11:34;;;;;;;0.00;0.00;;;24.40;44.90;;;;;;5125242;22;20238;-45
2024/01/06 05:14:05;;;;;;;0.00;0.00;;;24.40;44.90;;;;;;5090897;28;20288;-45
2024/01/06 05:16:35;;;;;;;0.00;0.00;;;24.40;45.00;;;;;;5086504;28;20855;-52
2024/01/06 05:19:06;;;;;;;0.00;0.00;;;24.40;44.80;;;;;;5088672;28;20457;-49
2024/01/06 05:21:38;;;;;;;0.00;0.00;;;24.40;45.10;;;;;;5089774;28;20427;-51
2024/01/06 05:24:11;;;;;;;0.00;0.00;;;24.60;45.10;;;;;;5089510;28;20440;-55
2024/01/06 05:26:42;;;;;;;0.00;0.00;;;24.90;45.10;;;;;;5090600;28;20198;-46
2024/01/06 05:29:12;;;;;;;0.00;0.00;;;25.10;44.30;;;;;;5091078;28;20286;-46
2024/01/06 05:31:43;;;;;;;0.00;0.00;;;25.20;43.90;;;;;;5090333;28;20198;-46
2024/01/06 05:34:14;;;;;;;0.00;0.00;;;25.20;43.70;;;;;;5090663;28;20194;-45
2024/01/06 05:36:44;;;;;;;0.00;0.00;;;25.20;43.60;;;;;;5090898;28;20205;-48
2024/01/06 05:39:17;;;;;;;0.00;0.00;;;25.10;43.60;;;;;;5103406;28;20230;-46
2024/01/06 05:41:48;;;;;;;0.00;0.00;;;25.00;43.70;;;;;;5089302;28;20201;-47
2024/01/06 05:44:18;;;;;;;0.10;0.10;;;25.00;43.70;;;;;;5088850;28;20194;-48
2024/01/06 05:46:50;;;;;;;0.10;0.10;;;24.90;43.80;;;;;;5090023;28;20650;-48
2024/01/06 05:49:21;;;;;;;0.00;0.00;;;24.90;43.90;;;;;;5089581;28;20229;-47
2024/01/06 05:51:51;;;;;;;0.00;0.00;;;24.80;43.90;;;;;;5090300;28;20201;-46
2024/01/06 05:54:24;;;;;;;0.00;0.00;;;24.80;44.00;;;;;;5089034;28;20562;-46
2024/01/06 05:56:55;;;;;;;0.00;0.00;;;24.70;44.60;;;;;;5088516;28;20202;-46
2024/01/06 05:59:25;;;;;;;0.10;0.10;;;24.70;44.10;;;;;;5089244;28;20243;-48
2024/01/06 06:01:56;;;;;;;0.00;0.00;;;24.70;44.10;;;;;;5089881;28;20206;-46
2024/01/06 06:04:27;;;;;;;0.00;0.00;;;24.60;44.10;;;;;;5089964;28;20586;-48
2024/01/06 06:06:57;;;;;;;0.00;0.00;;;24.60;44.20;;;;;;5092617;28;20608;-46
2024/01/06 06:09:30;;;;;;;0.00;0.00;;;24.50;44.20;;;;;;5110626;28;20218;-48
2024/01/06 06:12:01;;;;;;;0.00;0.00;;;24.50;44.20;;;;;;5110075;28;20213;-44
2024/01/06 06:14:32;;;;;;;0.00;0.00;;;24.50;44.20;;;;;;5092097;28;20183;-48
2024/01/06 06:17:02;;;;;;;0.00;0.00;;;24.50;44.30;;;;;;5093152;28;20194;-45
2024/01/06 06:19:33;;;;;;;0.00;0.00;;;24.40;44.30;;;;;;5093046;28;20305;-44
2024/01/06 06:22:04;;;;;;;0.00;0.00;;;24.40;44.20;;;;;;5093234;28;20194;-46
2024/01/06 06:24:36;;;;;;;0.00;0.00;;;24.40;44.30;;;;;;5092929;28;20198;-45
2024/01/06 06:27:07;;;;;;;0.00;0.00;;;24.40;44.30;;;;;;5093098;28;20566;-45
2024/01/06 06:29:38;;;;;;;0.00;0.00;;;24.40;44.30;;;;;;5091792;28;20225;-45
2024/01/06 06:32:09;;;;;;;0.00;0.00;;;24.40;44.30;;;;;;5092835;28;20204;-45
2024/01/06 06:34:40;;;;;;;0.00;0.00;;;24.40;44.30;;;;;;5093055;28;20190;-45
2024/01/06 06:37:11;;;;;;;0.00;0.00;;;24.30;44.20;;;;;;5097346;28;20227;-45
2024/01/06 06:39:44;;;;;;;0.00;0.00;;;24.30;44.20;;;;;;5113049;28;20260;-47
2024/01/06 06:42:15;;;;;;;0.00;0.00;;;24.30;44.20;;;;;;5113573;28;20479;-46
2024/01/06 06:44:46;;;;;;;0.00;0.00;;;24.30;44.30;;;;;;5112535;28;20585;-46
2024/01/06 06:47:17;;;;;;;0.00;0.00;;;24.30;44.30;;;;;;5113011;28;20632;-45
2024/01/06 06:49:48;;;;;;;0.00;0.00;;;24.30;44.30;;;;;;5113158;28;20209;-46
2024/01/06 06:52:19;;;;;;;0.00;0.00;;;24.30;44.30;;;;;;5113246;28;20194;-47
2024/01/06 06:54:52;;;;;;;0.00;0.00;;;24.30;44.30;;;;;;5112985;28;20362;-46
2024/01/06 06:57:23;;;;;;;0.10;0.10;;;24.30;44.30;;;;;;5113252;28;20186;-46
2024/01/06 06:59:54;;;;;;;0.00;0.00;;;24.30;44.30;;;;;;5112450;28;20225;-46
2024/01/06 07:02:25;;;;;;;0.00;0.00;;;24.30;44.40;;;;;;5113046;28;20197;-48
2024/01/06 07:04:55;;;;;;;0.00;0.00;;;24.30;44.30;;;;;;5113199;28;20201;-49
2024/01/06 07:07:26;;;;;;;0.00;0.00;;;24.30;44.40;;;;;;5112308;28;20208;-46
2024/01/06 07:09:59;;;;;;;0.00;0.00;;;24.30;44.40;;;;;;5112804;28;20213;-46
2024/01/06 07:12:29;;;;;;;0.00;0.00;;;24.30;44.40;;;;;;5096719;28;20198;-48
2024/01/06 07:15:00;;;;;;;0.00;0.00;;;24.30;44.40;;;;;;5113408;22;20229;-44
2024/01/06 07:17:31;;;;;;;0.00;0.00;;;24.30;44.40;;;;;;5112237;28;20941;-45
2024/01/06 07:20:02;;;;;;;0.00;0.00;;;24.30;44.50;;;;;;5111960;28;20217;-46
2024/01/06 07:22:32;;;;;;;0.00;0.00;;;24.30;44.50;;;;;;5112024;28;20672;-43
2024/01/06 07:25:05;;;;;;;0.00;0.00;;;24.20;44.50;;;;;;5111728;28;20205;-43
2024/01/06 07:27:36;;;;;;;0.00;0.00;;;24.30;44.50;;;;;;5111938;28;20674;-45
2024/01/06 07:30:08;;;;;;;0.00;0.00;;;24.30;44.60;;;;;;5111489;28;20217;-45
2024/01/06 07:32:39;;;;;;;0.00;0.00;;;24.20;44.60;;;;;;5112193;28;20201;-43
2024/01/06 07:35:10;;;;;;;0.00;0.00;;;24.20;44.60;;;;;;5111766;28;20193;-46
2024/01/06 07:37:41;;;;;;;0.00;0.00;;;24.20;44.60;;;;;;5111636;28;20413;-44
2024/01/06 07:40:16;;;;;;;0.00;0.00;;;24.20;44.60;;;;;;5111579;28;20696;-44
2024/01/06 07:42:47;;;;;;;0.00;0.00;;;24.20;44.60;;;;;;5111850;28;20219;-44
2024/01/06 07:45:18;;;;;;;0.00;0.00;;;24.20;44.70;;;;;;5111014;28;20654;-44
2024/01/06 07:47:48;;;;;;;0.00;0.00;;;24.20;44.70;;;;;;5111950;28;20190;-44
2024/01/06 07:50:19;;;;;;;0.00;0.00;;;24.20;44.80;;;;;;5111414;28;20202;-45
2024/01/06 07:52:50;;;;;;;0.10;0.10;;;24.20;44.80;;;;;;5111758;28;20204;-44
2024/01/06 07:55:22;;;;;;;0.00;0.00;;;24.20;44.80;;;;;;5111338;28;20196;-44
2024/01/06 07:57:53;;;;;;;0.00;0.00;;;24.20;44.90;;;;;;5111133;28;20194;-45
2024/01/06 08:00:24;;;;;;;0.00;0.00;;;24.20;44.90;;;;;;5111415;28;20232;-44
2024/01/06 08:02:55;;;;;;;0.00;0.00;;;24.20;44.90;;;;;;5111812;28;20649;-43
2024/01/06 08:05:25;;;;;;;0.00;0.00;;;24.20;45.00;;;;;;5111849;28;20648;-47
2024/01/06 08:07:56;;;;;;;0.00;0.00;;;24.20;45.00;;;;;;5111487;28;20296;-45
2024/01/06 08:10:29;;;;;;;0.00;0.00;;;24.20;45.00;;;;;;5111349;28;20572;-43
2024/01/06 08:13:00;;;;;;;0.00;0.00;;;24.20;45.10;;;;;;5111237;28;20653;-44
2024/01/06 08:15:32;;;;;;;0.00;0.00;;;24.20;45.10;;;;;;5112346;28;20212;-45
2024/01/06 08:18:03;;;;;;;0.00;0.00;;;24.20;45.10;;;;;;5111979;28;20197;-44
2024/01/06 08:20:33;;;;;;;0.10;0.10;;;24.20;45.00;;;;;;5114931;28;20236;-44
2024/01/06 08:23:04;;;;;;;0.00;0.00;;;24.10;45.00;;;;;;5115173;28;20574;-47
2024/01/06 08:25:36;;;;;;;0.00;0.00;;;24.10;44.90;;;;;;5115431;28;20206;-44
2024/01/06 08:28:08;;;;;;;0.00;0.00;;;24.10;44.90;;;;;;5115290;28;20193;-46
2024/01/06 08:30:38;;;;;;;0.00;0.00;;;24.10;45.00;;;;;;5109993;27;20213;-43
2024/01/06 08:33:09;;;;;;;0.00;0.00;;;24.10;45.00;;;;;;5110049;28;20216;-44
2024/01/06 08:35:40;;;;;;;0.00;0.00;;;24.10;45.00;;;;;;5110906;28;20211;-45
2024/01/06 08:38:11;;;;;;;0.00;0.00;;;24.10;45.10;;;;;;5109979;28;20205;-43
2024/01/06 08:40:47;;;;;;;0.00;0.00;;;24.00;45.00;;;;;;5112296;28;20242;-46
2024/01/06 08:43:18;;;;;;;0.00;0.00;;;24.00;45.00;;;;;;5090300;28;20197;-47
2024/01/06 08:45:50;;;;;;;0.00;0.00;;;24.00;45.10;;;;;;5107712;28;20197;-45
2024/01/06 08:48:22;;;;;;;0.00;0.00;;;24.00;45.10;;;;;;5109374;28;20197;-45
2024/01/06 08:50:52;;;;;;;0.00;0.00;;;24.00;45.10;;;;;;5091619;28;20593;-44
2024/01/06 08:53:23;;;;;;;0.00;0.00;;;24.00;45.20;;;;;;5112097;28;20270;-47
2024/01/06 08:55:56;;;;;;;0.00;0.00;;;24.00;45.20;;;;;;5111352;28;20204;-46
2024/01/06 08:58:27;;;;;;;0.00;0.00;;;24.00;45.20;;;;;;5110295;28;20198;-44
2024/01/06 09:00:58;;;;;;;0.00;0.00;;;24.00;45.20;;;;;;5110939;28;20268;-44
2024/01/06 09:03:29;;;;;;;0.00;0.00;;;23.90;45.20;;;;;;5111258;28;20202;-45
2024/01/06 09:06:00;;;;;;;0.00;0.00;;;23.90;45.20;;;;;;5110902;28;20201;-45
2024/01/06 09:08:30;;;;;;;0.00;0.00;;;23.90;45.20;;;;;;5110594;28;20274;-43
2024/01/06 09:11:03;;;;;;;0.00;0.00;;;23.90;45.20;;;;;;5111538;27;20284;-44
2024/01/06 09:13:34;;;;;;;0.00;0.00;;;23.90;45.10;;;;;;5110582;28;20394;-44
2024/01/06 09:16:05;;;;;;;0.00;0.00;;;23.90;45.20;;;;;;5110091;28;20234;-46
2024/01/06 09:18:35;;;;;;;0.00;0.00;;;23.90;45.20;;;;;;5110387;28;20197;-43
2024/01/06 09:21:07;;;;;;;0.00;0.00;;;23.80;45.20;;;;;;5109306;28;20345;-43
2024/01/06 09:23:37;;;;;;;0.00;0.00;;;23.80;45.20;;;;;;5110824;28;20240;-42
2024/01/06 09:26:10;;;;;;;0.00;0.00;;;23.80;45.20;;;;;;5111042;28;20197;-44
2024/01/06 09:28:41;;;;;;;0.00;0.00;;;23.80;45.20;;;;;;5111122;28;20193;-43
2024/01/06 09:31:11;;;;;;;0.00;0.00;;;23.80;45.20;;;;;;5110117;28;20679;-45
2024/01/06 09:33:42;;;;;;;0.00;0.00;;;23.80;45.20;;;;;;5111005;28;20198;-43
2024/01/06 09:36:13;;;;;;;0.00;0.00;;;23.70;45.20;;;;;;5110395;28;20681;-42
2024/01/06 09:38:44;;;;;;;0.00;0.00;;;23.70;45.20;;;;;;5110872;28;20205;-43
2024/01/06 09:41:17;;;;;;;0.00;0.00;;;23.70;45.20;;;;;;5110140;28;20228;-43
2024/01/06 09:43:47;;;;;;;0.00;0.00;;;23.70;45.20;;;;;;5110093;28;20193;-42
2024/01/06 09:46:26;;;;;;;0.00;0.00;;;23.70;45.30;;;;;;5109943;28;20227;-43
2024/01/06 09:48:58;;;;;;;0.00;0.00;;;23.60;45.20;;;;;;5110465;28;20213;-44
2024/01/06 09:51:29;;;;;;;0.00;0.00;;;23.60;45.20;;;;;;5109999;28;20621;-43
2024/01/06 09:54:02;;;;;;;0.00;0.00;;;23.60;45.20;;;;;;5111262;28;20201;-44
2024/01/06 09:56:34;;;;;;;0.00;0.00;;;23.60;45.20;;;;;;5110465;28;20197;-43
2024/01/06 09:59:05;;;;;;;0.10;0.10;;;23.60;45.20;;;;;;5110045;28;20233;-43
2024/01/06 10:01:37;;;;;;;0.10;0.10;;;23.50;45.20;;;;;;5110358;28;20349;-40
2024/01/06 10:04:07;;;;;;;0.00;0.00;;;23.50;45.20;;;;;;5110246;28;20198;-41
2024/01/06 10:06:38;;;;;;;0.00;0.00;;;23.50;45.20;;;;;;5109070;28;20189;-40
2024/01/06 10:09:11;;;;;;;0.05;0.05;;;23.50;45.20;;;;;;5109808;28;20600;-41
2024/01/06 10:11:43;;;;;;;0.00;0.00;;;23.50;45.30;;;;;;5109483;28;20208;-43
2024/01/06 10:14:15;;;;;;;0.00;0.00;;;23.50;45.20;;;;;;5109699;28;20221;-42
2024/01/06 10:16:48;;;;;;;0.00;0.00;;;23.40;45.20;;;;;;5109900;28;20208;-40
2024/01/06 10:19:22;;;;;;;0.10;0.10;;;23.40;45.30;;;;;;5108569;28;20210;-42
2024/01/06 10:21:53;;;;;;;0.00;0.00;;;23.40;45.30;;;;;;5110230;28;20185;-41
2024/01/06 10:24:23;;;;;;;0.00;0.00;;;23.40;45.30;;;;;;5110121;28;20189;-42
2024/01/06 10:26:56;;;;;;;0.00;0.00;;;23.40;45.30;;;;;;5094104;28;20238;-41
2024/01/06 10:29:28;;;;;;;0.00;0.00;;;23.40;45.40;;;;;;5109948;28;20580;-41
2024/01/06 10:31:59;;;;;;;0.00;0.00;;;23.30;45.30;;;;;;5109316;28;20202;-41
2024/01/06 10:34:32;;;;;;;0.00;0.00;;;23.30;45.40;;;;;;5109862;28;20297;-41
2024/01/06 10:37:03;;;;;;;0.00;0.00;;;23.30;45.40;;;;;;5109133;28;20197;-41
2024/01/06 10:39:34;;;;;;;0.00;0.00;;;23.30;45.40;;;;;;5109812;28;20631;-41
2024/01/06 10:42:09;;;;;;;0.00;0.00;;;23.30;45.40;;;;;;5109402;28;20193;-40
2024/01/06 10:44:41;;;;;;;0.00;0.00;;;23.30;45.40;;;;;;5109832;28;20304;-41
2024/01/06 10:47:13;;;;;;;0.00;0.00;;;23.20;45.30;;;;;;5108427;28;20193;-40
2024/01/06 10:49:44;;;;;;;0.00;0.00;;;23.20;45.30;;;;;;5109669;28;20214;-41
2024/01/06 10:52:15;;;;;;;0.00;0.00;;;23.10;45.30;;;;;;5109405;28;20581;-42
2024/01/06 10:54:50;;;;;;;0.00;0.00;;;23.10;45.30;;;;;;5113488;28;20568;-44
2024/01/06 10:57:23;;;;;;;0.00;0.00;;;23.20;45.40;;;;;;5112942;28;20292;-46
2024/01/06 10:59:54;;;;;;;0.00;0.00;;;23.10;45.30;;;;;;5113112;28;20266;-44
2024/01/06 11:02:26;;;;;;;0.00;0.00;;;23.10;45.30;;;;;;5112933;28;20197;-46
2024/01/06 11:04:57;;;;;;;0.00;0.00;;;23.10;45.30;;;;;;5112580;28;20307;-46
2024/01/06 11:07:29;;;;;;;0.10;0.10;;;23.10;45.40;;;;;;5112505;28;20201;-44
2024/01/06 11:10:05;;;;;;;0.10;0.10;;;23.00;45.40;;;;;;5112578;28;20221;-45
2024/01/06 11:12:38;;;;;;;0.00;0.00;;;23.00;45.40;;;;;;5112599;28;20258;-46
2024/01/06 11:15:09;;;;;;;0.00;0.00;;;23.00;45.40;;;;;;5113257;28;20205;-44
2024/01/06 11:17:58;;;;;;;0.00;0.00;;;23.00;45.50;;;;;;5113188;28;20197;-45
2024/01/06 11:20:29;;;;;;;0.00;0.00;;;22.90;45.50;;;;;;5112662;28;20330;-45
2024/01/06 11:23:20;;;;;;;0.00;0.00;;;22.90;45.50;;;;;;5112806;28;20196;-45
2024/01/06 11:25:51;;;;;;;0.00;0.00;;;22.90;45.50;;;;;;5112237;28;20254;-46
2024/01/06 11:28:25;;;;;;;0.00;0.00;;;22.90;45.50;;;;;;5111106;28;20202;-45
2024/01/06 11:31:11;;;;;;;0.00;0.00;;;22.90;45.60;;;;;;5112211;28;20304;-49
2024/01/06 11:33:47;;;;;;;0.00;0.00;;;22.80;45.60;;;;;;5112392;28;20189;-47
2024/01/06 11:36:19;;;;;;;0.00;0.00;;;22.80;45.60;;;;;;5112434;28;20196;-44
2024/01/06 11:38:50;;;;;;;0.00;0.00;;;22.80;45.50;;;;;;5112512;28;20204;-47
2024/01/06 11:41:54;;;;;;;0.00;0.00;;;22.80;45.60;;;;;;5112790;28;20341;-49
2024/01/06 11:44:30;;;;;;;0.00;0.00;;;22.80;45.60;;;;;;5111921;28;20199;-45
2024/01/06 11:47:02;;;;;;;0.00;0.00;;;22.70;45.50;;;;;;5111832;28;20201;-48
2024/01/06 11:49:33;;;;;;;0.00;0.00;;;22.70;45.50;;;;;;5111119;28;20213;-48
2024/01/06 11:52:04;;;;;;;0.00;0.00;;;22.70;45.60;;;;;;5111105;28;20677;-47
2024/01/06 11:54:35;;;;;;;0.00;0.00;;;22.60;45.60;;;;;;5110521;28;20559;-48
2024/01/06 11:57:06;;;;;;;0.00;0.00;;;22.60;45.60;;;;;;5108746;28;20189;-47
2024/01/06 11:59:39;;;;;;;0.00;0.00;;;22.60;45.60;;;;;;5111747;28;20205;-47
2024/01/06 12:02:13;;;;;;;0.00;0.00;;;22.60;45.70;;;;;;5109452;28;20217;-44
2024/01/06 12:04:44;;;;;;;0.00;0.00;;;22.60;45.70;;;;;;5111315;28;20205;-47
2024/01/06 12:07:15;;;;;;;0.00;0.00;;;22.60;45.70;;;;;;5111443;28;20197;-45
2024/01/06 12:09:46;;;;;;;0.00;0.00;;;22.50;45.70;;;;;;5108850;28;20201;-47
2024/01/06 12:12:19;;;;;;;0.00;0.00;;;22.50;45.70;;;;;;5111784;28;20558;-45
2024/01/06 12:14:51;;;;;;;0.00;0.00;;;22.50;45.70;;;;;;5108497;28;20650;-48
2024/01/06 12:17:24;;;;;;;0.00;0.00;;;22.50;45.70;;;;;;5111014;28;20218;-47
2024/01/06 12:19:55;;;;;;;0.00;0.00;;;22.50;45.80;;;;;;5110990;28;20553;-44
2024/01/06 12:22:26;;;;;;;0.00;0.00;;;22.50;45.80;;;;;;5090915;28;20210;-47
2024/01/06 12:24:56;;;;;;;0.00;0.00;;;22.40;45.80;;;;;;5091752;28;20557;-48
2024/01/06 12:27:28;;;;;;;0.00;0.00;;;22.40;45.70;;;;;;5091530;28;20212;-47
2024/01/06 12:30:01;;;;;;;0.00;0.00;;;22.40;46.40;;;;;;5091553;28;20685;-47
2024/01/06 12:32:32;;;;;;;0.00;0.00;;;22.40;45.80;;;;;;5091135;28;20572;-45
2024/01/06 12:35:04;;;;;;;0.10;0.10;;;22.40;45.80;;;;;;5091107;28;20193;-47
2024/01/06 12:37:35;;;;;;;0.00;0.00;;;22.40;45.80;;;;;;5098926;28;20205;-47
2024/01/06 12:40:06;;;;;;;0.00;0.00;;;22.30;45.70;;;;;;5111168;28;20213;-47
2024/01/06 12:42:37;;;;;;;0.00;0.00;;;22.30;45.70;;;;;;5111534;28;20213;-48
2024/01/06 12:45:12;;;;;;;0.00;0.00;;;22.30;45.70;;;;;;5111101;28;20204;-47
2024/01/06 12:47:43;;;;;;;0.00;0.00;;;22.30;45.80;;;;;;5111397;28;20200;-44
2024/01/06 12:50:12;;;;;;;0.00;0.00;;;22.30;45.80;;;;;;5111056;28;20210;-48
2024/01/06 12:52:43;;;;;;;0.00;0.00;;;22.20;45.80;;;;;;5111402;28;20189;-46
2024/01/06 12:55:14;;;;;;;0.03;0.03;;;22.20;45.80;;;;;;5112110;28;20652;-46
2024/01/06 12:57:46;;;;;;;0.00;0.00;;;22.20;45.80;;;;;;5111583;28;20223;-46
2024/01/06 13:00:19;;;;;;;0.00;0.00;;;22.20;45.80;;;;;;5111210;28;20209;-47
2024/01/06 13:02:50;;;;;;;0.10;0.10;;;22.20;45.90;;;;;;5111502;28;20649;-47
2024/01/06 13:05:20;;;;;;;0.08;0.08;;;22.10;45.80;;;;;;5111795;28;20196;-46
2024/01/06 13:07:51;;;;;;;0.10;0.10;;;22.10;45.80;;;;;;5104602;28;20251;-45
2024/01/06 13:10:22;;;;;;;0.00;0.00;;;22.10;45.90;;;;;;5114952;28;20213;-47